createdAt,value
2023-03-22T00:00:37.158Z,7.29
2023-03-22T00:01:36.743Z,7.28
2023-03-22T00:02:36.720Z,7.20
2023-03-22T00:03:36.769Z,7.17
2023-03-22T00:04:36.684Z,7.13
2023-03-22T00:05:36.636Z,7.13
2023-03-22T00:06:36.634Z,7.05
2023-03-22T00:07:36.601Z,7.17
2023-03-22T00:08:36.593Z,7.25
2023-03-22T00:09:36.625Z,7.21
2023-03-22T00:10:36.769Z,7.24
2023-03-22T00:11:36.541Z,7.15
2023-03-22T00:12:36.522Z,7.23
2023-03-22T00:13:36.551Z,7.25
2023-03-22T00:14:36.523Z,7.15
2023-03-22T00:15:36.472Z,7.24
2023-03-22T00:16:36.446Z,7.28
2023-03-22T00:17:36.448Z,7.29
2023-03-22T00:18:36.434Z,7.25
2023-03-22T00:19:36.436Z,7.32
2023-03-22T00:20:36.404Z,7.32
2023-03-22T00:21:36.377Z,7.25
2023-03-22T00:22:36.336Z,7.24
2023-03-22T00:23:36.333Z,7.25
2023-03-22T00:24:36.418Z,7.38
2023-03-22T00:25:36.303Z,7.23
2023-03-22T00:26:36.294Z,7.29
2023-03-22T00:27:36.258Z,7.29
2023-03-22T00:28:36.257Z,7.28
2023-03-22T00:29:36.255Z,7.28
2023-03-22T00:30:36.217Z,7.29
2023-03-22T00:31:36.262Z,7.35
2023-03-22T00:32:36.182Z,7.35
2023-03-22T00:33:36.158Z,7.33
2023-03-22T00:34:36.165Z,7.29
2023-03-22T00:35:36.160Z,7.40
2023-03-22T00:36:37.121Z,7.36
2023-03-22T00:37:36.096Z,7.31
2023-03-22T00:38:42.633Z,7.42
2023-03-22T00:39:38.116Z,7.39
2023-03-22T00:40:36.072Z,7.42
2023-03-22T00:41:36.036Z,7.32
2023-03-22T00:42:36.914Z,7.36
2023-03-22T00:43:35.987Z,7.36
2023-03-22T00:44:36.959Z,7.29
2023-03-22T00:45:35.983Z,7.40
2023-03-22T00:46:36.003Z,7.32
2023-03-22T00:47:35.923Z,7.21
2023-03-22T00:48:35.893Z,7.24
2023-03-22T00:49:35.873Z,7.20
2023-03-22T00:50:35.964Z,7.31
2023-03-22T00:51:35.839Z,7.21
2023-03-22T00:52:35.849Z,7.29
2023-03-22T00:53:35.819Z,7.15
2023-03-22T00:54:35.797Z,7.28
2023-03-22T00:55:35.798Z,7.29
2023-03-22T00:56:35.753Z,7.29
2023-03-22T00:57:35.735Z,7.33
2023-03-22T00:58:36.392Z,7.24
2023-03-22T00:59:36.765Z,7.33
2023-03-22T01:00:35.692Z,7.39
2023-03-22T01:01:35.757Z,7.24
2023-03-22T01:02:35.648Z,7.28
2023-03-22T01:03:35.675Z,7.31
2023-03-22T01:04:35.642Z,7.15
2023-03-22T01:05:35.621Z,7.15
2023-03-22T01:06:35.575Z,7.17
2023-03-22T01:07:35.571Z,7.21
2023-03-22T01:08:35.558Z,7.15
2023-03-22T01:09:35.529Z,7.11
2023-03-22T01:10:35.538Z,7.06
2023-03-22T01:11:35.486Z,7.10
2023-03-22T01:12:35.465Z,7.02
2023-03-22T01:13:35.458Z,7.07
2023-03-22T01:14:35.468Z,7.06
2023-03-22T01:15:35.459Z,7.15
2023-03-22T01:16:35.408Z,7.11
2023-03-22T01:17:36.380Z,7.14
2023-03-22T01:18:35.374Z,6.99
2023-03-22T01:19:35.356Z,7.03
2023-03-22T01:20:35.365Z,7.10
2023-03-22T01:21:35.336Z,7.06
2023-03-22T01:22:35.310Z,7.11
2023-03-22T01:23:35.307Z,7.07
2023-03-22T01:24:35.340Z,7.02
2023-03-22T01:25:35.282Z,7.05
2023-03-22T01:26:35.245Z,6.92
2023-03-22T01:27:35.216Z,7.03
2023-03-22T01:28:35.192Z,6.96
2023-03-22T01:29:35.178Z,7.03
2023-03-22T01:30:35.979Z,6.99
2023-03-22T01:31:35.151Z,7.05
2023-03-22T01:32:35.141Z,7.03
2023-03-22T01:33:35.110Z,7.06
2023-03-22T01:34:35.095Z,7.03
2023-03-22T01:35:35.140Z,7.02
2023-03-22T01:36:35.067Z,7.06
2023-03-22T01:37:35.033Z,7.07
2023-03-22T01:38:35.019Z,7.07
2023-03-22T01:39:35.004Z,7.06
2023-03-22T01:40:35.043Z,6.96
2023-03-22T01:41:34.986Z,7.07
2023-03-22T01:42:34.960Z,7.07
2023-03-22T01:43:34.939Z,6.96
2023-03-22T01:44:34.932Z,7.02
2023-03-22T01:45:34.923Z,7.03
2023-03-22T01:46:34.975Z,6.93
2023-03-22T01:47:34.878Z,6.87
2023-03-22T01:48:34.857Z,6.87
2023-03-22T01:49:34.853Z,6.93
2023-03-22T01:50:34.837Z,6.87
2023-03-22T01:51:34.817Z,6.93
2023-03-22T01:52:34.773Z,6.97
2023-03-22T01:53:34.756Z,6.95
2023-03-22T01:54:34.758Z,6.87
2023-03-22T01:55:34.757Z,7.03
2023-03-22T01:56:34.705Z,6.97
2023-03-22T01:57:34.700Z,6.88
2023-03-22T01:58:34.669Z,6.92
2023-03-22T01:59:34.658Z,6.99
2023-03-22T02:00:34.686Z,6.97
2023-03-22T02:01:34.693Z,6.89
2023-03-22T02:02:34.638Z,6.87
2023-03-22T02:03:34.588Z,6.96
2023-03-22T02:04:34.571Z,6.99
2023-03-22T02:05:34.607Z,6.92
2023-03-22T02:06:34.524Z,6.92
2023-03-22T02:07:34.512Z,6.93
2023-03-22T02:08:34.524Z,6.87
2023-03-22T02:09:34.490Z,6.92
2023-03-22T02:10:34.491Z,6.82
2023-03-22T02:11:34.452Z,6.84
2023-03-22T02:12:35.430Z,6.81
2023-03-22T02:13:34.439Z,6.81
2023-03-22T02:14:34.401Z,6.84
2023-03-22T02:15:34.440Z,6.81
2023-03-22T02:16:34.361Z,6.70
2023-03-22T02:17:34.338Z,6.67
2023-03-22T02:18:34.385Z,6.72
2023-03-22T02:19:34.310Z,6.74
2023-03-22T02:20:34.313Z,6.66
2023-03-22T02:21:34.279Z,6.67
2023-03-22T02:22:34.262Z,6.60
2023-03-22T02:23:34.222Z,6.62
2023-03-22T02:24:35.227Z,6.64
2023-03-22T02:25:34.248Z,6.63
2023-03-22T02:26:34.182Z,6.54
2023-03-22T02:27:34.162Z,6.74
2023-03-22T02:28:34.149Z,6.67
2023-03-22T02:29:34.125Z,6.69
2023-03-22T02:30:34.151Z,6.69
2023-03-22T02:31:34.131Z,6.64
2023-03-22T02:32:34.072Z,6.51
2023-03-22T02:33:34.056Z,6.75
2023-03-22T02:34:34.041Z,6.66
2023-03-22T02:35:34.093Z,6.59
2023-03-22T02:36:34.011Z,6.74
2023-03-22T02:37:34.006Z,6.69
2023-03-22T02:38:33.976Z,6.69
2023-03-22T02:39:33.963Z,6.69
2023-03-22T02:40:33.979Z,6.78
2023-03-22T02:41:33.920Z,6.77
2023-03-22T02:42:33.909Z,6.77
2023-03-22T02:43:33.887Z,6.77
2023-03-22T02:44:33.862Z,6.79
2023-03-22T02:45:33.881Z,6.70
2023-03-22T02:46:33.932Z,6.77
2023-03-22T02:47:33.816Z,6.79
2023-03-22T02:48:33.813Z,6.70
2023-03-22T02:49:33.785Z,6.75
2023-03-22T02:50:33.797Z,6.79
2023-03-22T02:51:33.749Z,6.74
2023-03-22T02:52:33.733Z,6.79
2023-03-22T02:53:33.719Z,6.79
2023-03-22T02:54:33.708Z,6.81
2023-03-22T02:55:33.710Z,6.84
2023-03-22T02:56:33.682Z,6.77
2023-03-22T02:57:33.649Z,6.70
2023-03-22T02:58:33.642Z,6.82
2023-03-22T02:59:33.613Z,6.87
2023-03-22T03:00:33.697Z,6.84
2023-03-22T03:01:33.579Z,6.89
2023-03-22T03:02:33.558Z,6.85
2023-03-22T03:03:33.556Z,6.89
2023-03-22T03:04:33.526Z,6.84
2023-03-22T03:05:33.546Z,6.85
2023-03-22T03:06:33.480Z,6.85
2023-03-22T03:07:33.469Z,6.88
2023-03-22T03:08:33.451Z,6.93
2023-03-22T03:09:33.446Z,6.84
2023-03-22T03:10:33.463Z,6.89
2023-03-22T03:11:33.410Z,6.81
2023-03-22T03:12:33.436Z,6.85
2023-03-22T03:13:33.370Z,6.82
2023-03-22T03:14:33.372Z,6.84
2023-03-22T03:15:33.357Z,6.85
2023-03-22T03:16:33.375Z,6.82
2023-03-22T03:17:33.343Z,6.79
2023-03-22T03:18:33.282Z,6.85
2023-03-22T03:19:33.263Z,6.89
2023-03-22T03:20:33.264Z,6.81
2023-03-22T03:21:33.218Z,6.82
2023-03-22T03:22:33.212Z,6.78
2023-03-22T03:23:33.200Z,6.81
2023-03-22T03:24:33.178Z,6.85
2023-03-22T03:25:33.208Z,6.93
2023-03-22T03:26:33.148Z,6.82
2023-03-22T03:27:33.127Z,6.97
2023-03-22T03:28:33.105Z,6.97
2023-03-22T03:29:33.090Z,6.87
2023-03-22T03:30:33.132Z,6.96
2023-03-22T03:31:33.925Z,6.88
2023-03-22T03:32:33.029Z,6.93
2023-03-22T03:33:33.014Z,6.97
2023-03-22T03:34:32.998Z,6.81
2023-03-22T03:35:33.051Z,6.81
2023-03-22T03:36:32.979Z,6.87
2023-03-22T03:37:32.952Z,6.84
2023-03-22T03:38:32.926Z,6.87
2023-03-22T03:39:32.908Z,6.87
2023-03-22T03:40:32.925Z,6.93
2023-03-22T03:41:32.875Z,6.92
2023-03-22T03:42:32.889Z,6.92
2023-03-22T03:43:32.840Z,6.95
2023-03-22T03:44:32.850Z,6.96
2023-03-22T03:45:32.863Z,6.89
2023-03-22T03:46:32.891Z,6.87
2023-03-22T03:47:32.772Z,6.95
2023-03-22T03:48:32.841Z,7.00
2023-03-22T03:49:32.730Z,7.03
2023-03-22T03:50:32.742Z,6.92
2023-03-22T03:51:32.698Z,6.92
2023-03-22T03:52:32.676Z,6.96
2023-03-22T03:53:32.666Z,6.96
2023-03-22T03:54:32.640Z,7.10
2023-03-22T03:55:32.658Z,7.17
2023-03-22T03:56:32.625Z,7.03
2023-03-22T03:57:32.658Z,7.07
2023-03-22T03:58:32.575Z,7.07
2023-03-22T03:59:32.557Z,6.99
2023-03-22T04:00:32.572Z,7.11
2023-03-22T04:01:33.534Z,7.15
2023-03-22T04:02:32.547Z,7.14
2023-03-22T04:03:32.496Z,7.10
2023-03-22T04:04:32.479Z,7.24
2023-03-22T04:05:33.501Z,7.15
2023-03-22T04:06:32.438Z,7.20
2023-03-22T04:07:32.423Z,7.17
2023-03-22T04:08:32.431Z,7.17
2023-03-22T04:09:32.399Z,7.18
2023-03-22T04:10:32.419Z,7.21
2023-03-22T04:11:32.355Z,7.28
2023-03-22T04:12:32.392Z,7.23
2023-03-22T04:13:32.327Z,7.25
2023-03-22T04:14:32.310Z,7.24
2023-03-22T04:15:32.339Z,7.29
2023-03-22T04:16:32.288Z,7.24
2023-03-22T04:17:32.274Z,7.33
2023-03-22T04:18:32.240Z,7.21
2023-03-22T04:19:32.328Z,7.25
2023-03-22T04:20:32.202Z,7.29
2023-03-22T04:21:32.223Z,7.28
2023-03-22T04:22:32.166Z,7.32
2023-03-22T04:23:32.155Z,7.33
2023-03-22T04:24:32.134Z,7.35
2023-03-22T04:25:32.111Z,7.23
2023-03-22T04:26:32.370Z,7.31
2023-03-22T04:27:32.072Z,7.25
2023-03-22T04:28:32.052Z,7.25
2023-03-22T04:29:32.040Z,7.21
2023-03-22T04:30:32.023Z,7.28
2023-03-22T04:31:32.063Z,7.23
2023-03-22T04:32:31.988Z,7.24
2023-03-22T04:33:31.967Z,7.20
2023-03-22T04:34:31.954Z,7.00
2023-03-22T04:35:31.945Z,7.10
2023-03-22T04:36:31.943Z,7.14
2023-03-22T04:37:31.901Z,7.10
2023-03-22T04:38:31.947Z,7.20
2023-03-22T04:39:31.869Z,7.18
2023-03-22T04:40:31.842Z,7.17
2023-03-22T04:41:31.859Z,7.03
2023-03-22T04:42:31.821Z,7.20
2023-03-22T04:43:32.795Z,7.14
2023-03-22T04:44:31.779Z,7.11
2023-03-22T04:45:31.757Z,7.15
2023-03-22T04:46:31.839Z,7.13
2023-03-22T04:47:31.733Z,7.13
2023-03-22T04:48:31.700Z,7.10
2023-03-22T04:49:31.700Z,7.11
2023-03-22T04:50:31.696Z,7.10
2023-03-22T04:51:31.684Z,7.10
2023-03-22T04:52:31.639Z,7.11
2023-03-22T04:53:31.623Z,7.05
2023-03-22T04:54:31.608Z,7.00
2023-03-22T04:55:31.588Z,7.03
2023-03-22T04:56:31.616Z,6.99
2023-03-22T04:57:31.563Z,7.05
2023-03-22T04:58:31.535Z,7.00
2023-03-22T04:59:31.524Z,7.07
2023-03-22T05:00:31.502Z,6.97
2023-03-22T05:01:31.545Z,7.06
2023-03-22T05:02:31.521Z,7.00
2023-03-22T05:03:31.447Z,7.06
2023-03-22T05:04:31.451Z,7.06
2023-03-22T05:05:31.444Z,7.06
2023-03-22T05:06:31.444Z,7.03
2023-03-22T05:07:31.480Z,7.06
2023-03-22T05:08:31.386Z,7.06
2023-03-22T05:09:31.349Z,7.10
2023-03-22T05:10:31.329Z,7.07
2023-03-22T05:11:31.330Z,6.97
2023-03-22T05:12:31.300Z,7.10
2023-03-22T05:13:31.266Z,6.99
2023-03-22T05:14:31.278Z,6.96
2023-03-22T05:15:31.236Z,7.02
2023-03-22T05:16:31.261Z,6.95
2023-03-22T05:17:31.228Z,7.05
2023-03-22T05:18:31.181Z,7.06
2023-03-22T05:19:31.161Z,7.13
2023-03-22T05:20:31.173Z,7.06
2023-03-22T05:21:31.164Z,7.00
2023-03-22T05:22:31.116Z,6.97
2023-03-22T05:23:31.092Z,6.93
2023-03-22T05:24:31.076Z,7.00
2023-03-22T05:25:31.081Z,7.02
2023-03-22T05:26:31.080Z,6.97
2023-03-22T05:27:31.081Z,6.95
2023-03-22T05:28:31.015Z,7.05
2023-03-22T05:29:30.994Z,6.99
2023-03-22T05:30:30.974Z,7.05
2023-03-22T05:31:31.056Z,7.07
2023-03-22T05:32:30.948Z,7.11
2023-03-22T05:33:30.918Z,7.14
2023-03-22T05:34:30.921Z,7.05
2023-03-22T05:35:30.908Z,7.18
2023-03-22T05:36:30.903Z,7.21
2023-03-22T05:37:30.852Z,7.32
2023-03-22T05:38:30.836Z,7.17
2023-03-22T05:39:30.833Z,7.20
2023-03-22T05:40:30.799Z,7.17
2023-03-22T05:41:30.813Z,7.24
2023-03-22T05:42:30.769Z,7.25
2023-03-22T05:43:30.769Z,7.33
2023-03-22T05:44:30.742Z,7.29
2023-03-22T05:45:30.730Z,7.45
2023-03-22T05:46:30.772Z,7.40
2023-03-22T05:47:30.695Z,7.38
2023-03-22T05:48:30.664Z,7.40
2023-03-22T05:49:30.698Z,7.58
2023-03-22T05:50:30.630Z,7.54
2023-03-22T05:51:30.674Z,7.85
2023-03-22T05:52:30.598Z,7.83
2023-03-22T05:53:30.585Z,7.87
2023-03-22T05:54:30.562Z,8.01
2023-03-22T05:55:30.547Z,8.13
2023-03-22T05:56:30.575Z,8.06
2023-03-22T05:57:30.532Z,8.23
2023-03-22T05:58:30.497Z,8.27
2023-03-22T05:59:30.489Z,8.27
2023-03-22T06:00:30.469Z,8.44
2023-03-22T06:01:30.470Z,8.76
2023-03-22T06:02:30.423Z,8.61
2023-03-22T06:03:30.516Z,8.48
2023-03-22T06:04:30.386Z,8.58
2023-03-22T06:05:30.381Z,8.48
2023-03-22T06:06:30.399Z,8.46
2023-03-22T06:07:30.366Z,8.41
2023-03-22T06:08:30.353Z,8.41
2023-03-22T06:09:30.349Z,8.20
2023-03-22T06:10:30.310Z,8.30
2023-03-22T06:11:30.292Z,8.23
2023-03-22T06:12:31.266Z,8.24
2023-03-22T06:13:30.316Z,8.15
2023-03-22T06:14:30.269Z,8.19
2023-03-22T06:15:30.214Z,8.30
2023-03-22T06:16:30.259Z,8.37
2023-03-22T06:17:30.170Z,8.34
2023-03-22T06:18:30.164Z,8.85
2023-03-22T06:19:30.163Z,8.84
2023-03-22T06:20:30.167Z,8.89
2023-03-22T06:21:30.129Z,8.76
2023-03-22T06:22:30.196Z,8.70
2023-03-22T06:23:30.081Z,8.58
2023-03-22T06:24:30.058Z,8.70
2023-03-22T06:25:30.074Z,8.66
2023-03-22T06:26:30.068Z,8.79
2023-03-22T06:27:29.993Z,9.13
2023-03-22T06:28:30.030Z,9.21
2023-03-22T06:29:29.954Z,9.23
2023-03-22T06:30:30.029Z,9.89
2023-03-22T06:31:29.949Z,10.68
2023-03-22T06:32:29.909Z,10.60
2023-03-22T06:33:29.911Z,11.15
2023-03-22T06:34:29.861Z,11.73
2023-03-22T06:35:29.857Z,12.25
2023-03-22T06:36:29.848Z,12.54
2023-03-22T06:37:29.835Z,12.87
2023-03-22T06:38:29.760Z,13.25
2023-03-22T06:39:29.740Z,13.41
2023-03-22T06:40:29.721Z,13.77
2023-03-22T06:41:29.692Z,13.37
2023-03-22T06:42:29.719Z,13.15
2023-03-22T06:43:29.656Z,13.12
2023-03-22T06:44:29.643Z,12.80
2023-03-22T06:45:29.611Z,12.83
2023-03-22T06:46:29.673Z,12.91
2023-03-22T06:47:29.594Z,13.59
2023-03-22T06:48:29.664Z,14.07
2023-03-22T06:49:29.537Z,14.08
2023-03-22T06:50:29.513Z,13.96
2023-03-22T06:51:29.500Z,14.11
2023-03-22T06:52:29.518Z,13.99
2023-03-22T06:53:29.458Z,13.62
2023-03-22T06:54:29.444Z,13.13
2023-03-22T06:55:29.430Z,12.29
2023-03-22T06:56:29.411Z,11.88
2023-03-22T06:57:29.416Z,11.35
2023-03-22T06:58:29.376Z,11.05
2023-03-22T06:59:29.344Z,10.82
2023-03-22T07:00:29.336Z,10.48
2023-03-22T07:01:29.369Z,10.59
2023-03-22T07:02:29.329Z,10.48
2023-03-22T07:03:29.318Z,10.10
2023-03-22T07:04:29.343Z,10.01
2023-03-22T07:05:29.237Z,9.97
2023-03-22T07:06:29.219Z,10.10
2023-03-22T07:07:29.230Z,10.19
2023-03-22T07:08:29.173Z,10.20
2023-03-22T07:09:29.178Z,10.25
2023-03-22T07:10:29.131Z,10.42
2023-03-22T07:11:29.127Z,10.60
2023-03-22T07:12:29.123Z,10.56
2023-03-22T07:13:29.068Z,10.61
2023-03-22T07:14:29.054Z,10.99
2023-03-22T07:15:29.036Z,11.55
2023-03-22T07:16:29.177Z,11.84
2023-03-22T07:17:29.014Z,11.94
2023-03-22T07:18:28.957Z,12.42
2023-03-22T07:19:28.933Z,13.01
2023-03-22T07:20:28.926Z,13.96
2023-03-22T07:21:28.894Z,14.26
2023-03-22T07:22:28.958Z,14.82
2023-03-22T07:23:28.854Z,15.09
2023-03-22T07:24:28.846Z,15.04
2023-03-22T07:25:28.821Z,15.28
2023-03-22T07:26:28.802Z,15.67
2023-03-22T07:27:28.806Z,15.76
2023-03-22T07:28:28.769Z,15.43
2023-03-22T07:29:28.822Z,15.21
2023-03-22T07:30:28.730Z,15.43
2023-03-22T07:31:28.842Z,15.49
2023-03-22T07:32:28.751Z,15.57
2023-03-22T07:33:28.691Z,15.92
2023-03-22T07:34:28.667Z,15.84
2023-03-22T07:35:28.653Z,15.70
2023-03-22T07:36:28.605Z,15.68
2023-03-22T07:37:28.626Z,15.43
2023-03-22T07:38:28.610Z,15.18
2023-03-22T07:39:28.577Z,14.55
2023-03-22T07:40:28.553Z,14.10
2023-03-22T07:41:28.534Z,13.90
2023-03-22T07:42:28.566Z,13.70
2023-03-22T07:43:28.516Z,13.31
2023-03-22T07:44:28.489Z,13.01
2023-03-22T07:45:28.775Z,12.65
2023-03-22T07:46:28.534Z,12.55
2023-03-22T07:47:40.456Z,12.42
2023-03-22T07:48:30.531Z,11.97
2023-03-22T07:49:28.428Z,11.77
2023-03-22T07:50:28.450Z,11.51
2023-03-22T07:51:28.346Z,11.26
2023-03-22T07:52:28.358Z,10.99
2023-03-22T07:53:28.309Z,10.69
2023-03-22T07:54:33.723Z,10.56
2023-03-22T07:55:30.304Z,10.34
2023-03-22T07:56:28.274Z,10.26
2023-03-22T07:57:28.266Z,9.97
2023-03-22T07:58:28.240Z,9.98
2023-03-22T07:59:28.230Z,9.84
2023-03-22T08:00:28.175Z,9.58
2023-03-22T08:01:28.193Z,9.47
2023-03-22T08:02:28.257Z,9.51
2023-03-22T08:03:28.192Z,9.58
2023-03-22T08:04:28.097Z,9.51
2023-03-22T08:05:28.084Z,9.62
2023-03-22T08:06:28.053Z,9.62
2023-03-22T08:07:28.070Z,9.76
2023-03-22T08:08:28.011Z,9.74
2023-03-22T08:09:27.985Z,9.66
2023-03-22T08:10:28.025Z,9.76
2023-03-22T08:11:27.954Z,9.94
2023-03-22T08:12:27.962Z,9.94
2023-03-22T08:13:27.908Z,9.89
2023-03-22T08:14:36.241Z,10.04
2023-03-22T08:15:29.868Z,9.94
2023-03-22T08:16:27.873Z,10.10
2023-03-22T08:17:27.865Z,10.09
2023-03-22T08:18:27.799Z,10.05
2023-03-22T08:19:27.772Z,9.91
2023-03-22T08:20:27.789Z,9.87
2023-03-22T08:21:27.732Z,9.91
2023-03-22T08:22:27.735Z,9.99
2023-03-22T08:23:40.480Z,9.95
2023-03-22T08:24:29.658Z,10.12
2023-03-22T08:25:27.707Z,10.12
2023-03-22T08:26:27.758Z,9.99
2023-03-22T08:27:27.627Z,10.13
2023-03-22T08:28:27.575Z,10.15
2023-03-22T08:29:27.559Z,10.26
2023-03-22T08:30:27.600Z,10.59
2023-03-22T08:31:27.558Z,11.62
2023-03-22T08:32:27.555Z,12.09
2023-03-22T08:33:27.704Z,12.20
2023-03-22T08:34:27.441Z,12.22
2023-03-22T08:35:27.501Z,12.28
2023-03-22T08:36:27.599Z,12.36
2023-03-22T08:37:27.433Z,12.62
2023-03-22T08:38:27.372Z,12.75
2023-03-22T08:39:27.376Z,12.80
2023-03-22T08:40:27.483Z,12.72
2023-03-22T08:41:27.305Z,12.85
2023-03-22T08:42:27.307Z,13.04
2023-03-22T08:43:27.255Z,13.33
2023-03-22T08:44:27.233Z,13.52
2023-03-22T08:45:27.216Z,13.96
2023-03-22T08:46:27.255Z,14.44
2023-03-22T08:47:27.192Z,14.78
2023-03-22T08:48:27.178Z,14.81
2023-03-22T08:49:27.124Z,14.62
2023-03-22T08:50:27.122Z,14.03
2023-03-22T08:51:27.078Z,13.81
2023-03-22T08:52:27.124Z,13.79
2023-03-22T08:53:27.040Z,13.74
2023-03-22T08:54:27.024Z,13.99
2023-03-22T08:55:27.825Z,14.45
2023-03-22T08:56:26.982Z,14.63
2023-03-22T08:57:27.018Z,14.58
2023-03-22T08:58:26.948Z,14.17
2023-03-22T08:59:26.931Z,13.92
2023-03-22T09:00:32.007Z,14.05
2023-03-22T09:01:27.963Z,13.90
2023-03-22T09:02:26.944Z,13.99
2023-03-22T09:03:26.861Z,14.20
2023-03-22T09:04:26.878Z,14.14
2023-03-22T09:05:26.819Z,14.17
2023-03-22T09:06:26.801Z,13.83
2023-03-22T09:07:26.811Z,13.71
2023-03-22T09:08:26.765Z,13.83
2023-03-22T09:09:26.747Z,13.70
2023-03-22T09:10:26.730Z,13.96
2023-03-22T09:11:26.701Z,13.72
2023-03-22T09:12:26.737Z,13.63
2023-03-22T09:13:26.671Z,13.50
2023-03-22T09:14:26.652Z,13.27
2023-03-22T09:15:26.634Z,13.05
2023-03-22T09:16:26.719Z,12.83
2023-03-22T09:17:26.636Z,12.68
2023-03-22T09:18:26.595Z,12.67
2023-03-22T09:19:26.572Z,12.72
2023-03-22T09:20:26.823Z,12.65
2023-03-22T09:21:26.534Z,12.58
2023-03-22T09:22:26.538Z,12.53
2023-03-22T09:23:26.491Z,12.60
2023-03-22T09:24:26.462Z,12.82
2023-03-22T09:25:26.470Z,12.75
2023-03-22T09:26:26.424Z,12.70
2023-03-22T09:27:26.442Z,12.80
2023-03-22T09:28:26.526Z,13.05
2023-03-22T09:29:26.365Z,13.38
2023-03-22T09:30:26.345Z,13.60
2023-03-22T09:31:26.404Z,13.87
2023-03-22T09:32:26.338Z,14.11
2023-03-22T09:33:26.283Z,14.05
2023-03-22T09:34:26.270Z,14.03
2023-03-22T09:35:26.317Z,14.07
2023-03-22T09:36:26.229Z,14.05
2023-03-22T09:37:26.254Z,14.48
2023-03-22T09:38:26.187Z,14.70
2023-03-22T09:39:26.171Z,14.92
2023-03-22T09:40:26.175Z,15.04
2023-03-22T09:41:26.122Z,15.09
2023-03-22T09:42:26.104Z,14.89
2023-03-22T09:43:26.114Z,14.78
2023-03-22T09:44:26.066Z,14.63
2023-03-22T09:45:26.057Z,14.47
2023-03-22T09:46:26.134Z,14.37
2023-03-22T09:47:30.722Z,14.23
2023-03-22T09:48:28.083Z,13.83
2023-03-22T09:49:25.977Z,13.83
2023-03-22T09:50:25.967Z,13.89
2023-03-22T09:51:25.931Z,14.45
2023-03-22T09:52:25.939Z,14.68
2023-03-22T09:53:25.926Z,15.03
2023-03-22T09:54:25.871Z,14.73
2023-03-22T09:55:25.859Z,15.02
2023-03-22T09:56:25.840Z,14.92
2023-03-22T09:57:25.867Z,14.94
2023-03-22T09:58:25.892Z,15.11
2023-03-22T09:59:25.776Z,14.88
2023-03-22T10:00:25.861Z,14.66
2023-03-22T10:01:25.907Z,14.62
2023-03-22T10:02:25.742Z,14.63
2023-03-22T10:03:25.731Z,14.26
2023-03-22T10:04:25.725Z,14.10
2023-03-22T10:05:25.672Z,14.00
2023-03-22T10:06:26.098Z,13.96
2023-03-22T10:07:25.671Z,13.97
2023-03-22T10:08:25.638Z,13.60
2023-03-22T10:09:25.598Z,13.42
2023-03-22T10:10:25.573Z,13.03
2023-03-22T10:11:25.546Z,12.85
2023-03-22T10:12:25.535Z,12.83
2023-03-22T10:13:25.545Z,12.65
2023-03-22T10:14:26.314Z,12.54
2023-03-22T10:15:25.463Z,12.43
2023-03-22T10:16:25.458Z,12.49
2023-03-22T10:17:25.429Z,12.50
2023-03-22T10:18:25.432Z,12.46
2023-03-22T10:19:25.377Z,12.60
2023-03-22T10:20:25.362Z,12.85
2023-03-22T10:21:25.367Z,12.95
2023-03-22T10:22:25.338Z,12.90
2023-03-22T10:23:25.330Z,12.87
2023-03-22T10:24:25.290Z,12.95
2023-03-22T10:25:25.254Z,13.28
2023-03-22T10:26:25.239Z,13.52
2023-03-22T10:27:25.255Z,13.60
2023-03-22T10:28:25.226Z,13.54
2023-03-22T10:29:25.180Z,13.47
2023-03-22T10:30:25.159Z,13.12
2023-03-22T10:31:25.171Z,13.08
2023-03-22T10:32:25.130Z,13.11
2023-03-22T10:33:25.638Z,13.15
2023-03-22T10:34:25.072Z,12.93
2023-03-22T10:35:25.111Z,12.85
2023-03-22T10:36:25.022Z,12.80
2023-03-22T10:37:25.002Z,12.78
2023-03-22T10:38:25.011Z,12.90
2023-03-22T10:39:24.956Z,12.70
2023-03-22T10:40:24.942Z,12.70
2023-03-22T10:41:24.939Z,12.73
2023-03-22T10:42:24.908Z,12.70
2023-03-22T10:43:24.901Z,12.57
2023-03-22T10:44:24.861Z,12.57
2023-03-22T10:45:24.824Z,12.47
2023-03-22T10:46:25.838Z,12.39
2023-03-22T10:47:24.785Z,12.43
2023-03-22T10:48:24.824Z,12.42
2023-03-22T10:49:24.745Z,12.54
2023-03-22T10:50:24.722Z,12.57
2023-03-22T10:51:24.699Z,12.60
2023-03-22T10:52:24.681Z,12.70
2023-03-22T10:53:24.807Z,12.75
2023-03-22T10:54:26.096Z,12.70
2023-03-22T10:55:25.623Z,12.80
2023-03-22T10:56:24.594Z,12.79
2023-03-22T10:57:24.586Z,12.82
2023-03-22T10:58:24.612Z,12.90
2023-03-22T10:59:24.525Z,12.95
2023-03-22T11:00:24.796Z,12.95
2023-03-22T11:01:24.604Z,13.01
2023-03-22T11:02:24.545Z,13.01
2023-03-22T11:03:24.468Z,13.09
2023-03-22T11:04:24.423Z,13.09
2023-03-22T11:05:24.394Z,13.20
2023-03-22T11:06:24.399Z,13.25
2023-03-22T11:07:24.356Z,13.25
2023-03-22T11:08:24.364Z,13.37
2023-03-22T11:09:24.309Z,13.20
2023-03-22T11:10:24.335Z,13.30
2023-03-22T11:11:24.275Z,13.28
2023-03-22T11:12:24.245Z,13.47
2023-03-22T11:13:24.257Z,13.47
2023-03-22T11:14:24.213Z,13.44
2023-03-22T11:15:24.197Z,13.47
2023-03-22T11:16:24.221Z,13.38
2023-03-22T11:17:24.140Z,13.33
2023-03-22T11:18:24.143Z,13.22
2023-03-22T11:19:24.102Z,13.23
2023-03-22T11:20:24.157Z,12.97
2023-03-22T11:21:24.054Z,13.09
2023-03-22T11:22:24.025Z,13.04
2023-03-22T11:23:24.031Z,13.18
2023-03-22T11:24:23.988Z,12.91
2023-03-22T11:25:23.958Z,12.78
2023-03-22T11:27:23.947Z,12.94
2023-03-22T11:28:23.922Z,12.98
2023-03-22T11:29:23.874Z,12.87
2023-03-22T11:30:23.856Z,12.82
2023-03-22T11:31:23.844Z,12.86
2023-03-22T11:32:23.869Z,12.95
2023-03-22T11:33:23.830Z,13.05
2023-03-22T11:34:23.769Z,12.97
2023-03-22T11:35:23.787Z,12.93
2023-03-22T11:36:23.742Z,12.97
2023-03-22T11:37:24.703Z,13.04
2023-03-22T11:38:23.705Z,12.91
2023-03-22T11:39:23.661Z,13.03
2023-03-22T11:40:23.637Z,13.09
2023-03-22T11:41:23.614Z,13.09
2023-03-22T11:42:23.598Z,13.12
2023-03-22T11:43:23.603Z,13.12
2023-03-22T11:44:23.554Z,13.11
2023-03-22T11:45:23.536Z,13.12
2023-03-22T11:46:23.552Z,13.16
2023-03-22T11:47:23.488Z,13.13
2023-03-22T11:48:23.601Z,13.13
2023-03-22T11:49:23.450Z,13.11
2023-03-22T11:50:23.425Z,13.09
2023-03-22T11:51:23.434Z,13.13
2023-03-22T11:52:23.393Z,13.23
2023-03-22T11:53:23.403Z,13.47
2023-03-22T11:54:23.341Z,13.39
2023-03-22T11:55:23.314Z,13.53
2023-03-22T11:56:23.290Z,13.56
2023-03-22T11:57:23.271Z,13.46
2023-03-22T11:58:24.079Z,13.56
2023-03-22T11:59:23.243Z,13.85
2023-03-22T12:00:23.217Z,13.90
2023-03-22T12:01:23.195Z,13.99
2023-03-22T12:02:23.259Z,14.00
2023-03-22T12:03:23.267Z,14.05
2023-03-22T12:04:23.130Z,14.11
2023-03-22T12:05:23.218Z,14.12
2023-03-22T12:06:23.152Z,14.18
2023-03-22T12:07:23.058Z,14.17
2023-03-22T12:08:23.072Z,14.15
2023-03-22T12:09:23.118Z,13.93
2023-03-22T12:10:23.107Z,13.93
2023-03-22T12:11:22.982Z,13.90
2023-03-22T12:12:22.991Z,14.04
2023-03-22T12:13:22.971Z,13.86
2023-03-22T12:14:22.912Z,13.67
2023-03-22T12:15:22.885Z,13.74
2023-03-22T12:16:24.983Z,13.81
2023-03-22T12:17:23.851Z,13.77
2023-03-22T12:18:22.973Z,13.89
2023-03-22T12:19:22.812Z,14.07
2023-03-22T12:20:22.824Z,14.17
2023-03-22T12:21:22.763Z,14.32
2023-03-22T12:22:22.732Z,14.59
2023-03-22T12:23:22.769Z,14.81
2023-03-22T12:24:22.708Z,14.97
2023-03-22T12:25:22.686Z,15.04
2023-03-22T12:26:22.686Z,14.94
2023-03-22T12:27:22.636Z,14.91
2023-03-22T12:28:22.664Z,15.02
2023-03-22T12:29:22.597Z,14.99
2023-03-22T12:30:22.588Z,15.03
2023-03-22T12:31:22.604Z,14.94
2023-03-22T12:32:22.565Z,14.91
2023-03-22T12:33:22.539Z,14.94
2023-03-22T12:34:22.494Z,14.70
2023-03-22T12:35:22.476Z,14.65
2023-03-22T12:36:22.481Z,14.54
2023-03-22T12:37:22.436Z,14.69
2023-03-22T12:38:22.439Z,14.65
2023-03-22T12:39:22.379Z,14.68
2023-03-22T12:40:22.365Z,14.47
2023-03-22T12:41:22.345Z,14.54
2023-03-22T12:42:22.324Z,14.51
2023-03-22T12:43:22.335Z,14.51
2023-03-22T12:44:22.271Z,14.50
2023-03-22T12:45:23.269Z,14.60
2023-03-22T12:46:22.333Z,14.60
2023-03-22T12:47:22.249Z,14.36
2023-03-22T12:48:22.364Z,14.32
2023-03-22T12:49:22.205Z,14.33
2023-03-22T12:50:22.164Z,14.47
2023-03-22T12:51:22.156Z,14.53
2023-03-22T12:52:22.124Z,14.53
2023-03-22T12:53:22.236Z,14.53
2023-03-22T12:54:22.115Z,14.69
2023-03-22T12:55:22.071Z,14.60
2023-03-22T12:56:22.098Z,14.73
2023-03-22T12:57:22.050Z,14.70
2023-03-22T12:58:21.997Z,14.92
2023-03-22T12:59:22.006Z,14.99
2023-03-22T13:00:22.005Z,15.09
2023-03-22T13:01:21.987Z,14.96
2023-03-22T13:02:21.991Z,15.07
2023-03-22T13:03:21.980Z,14.94
2023-03-22T13:04:23.093Z,14.86
2023-03-22T13:05:23.257Z,14.73
2023-03-22T13:06:22.131Z,14.77
2023-03-22T13:07:21.816Z,14.77